createdAt,value
2022-07-29T03:44:56.807Z,24.09
2022-07-29T03:48:09.453Z,24.09
2022-07-29T03:51:11.894Z,23.83
2022-07-29T03:54:15.235Z,23.85
2022-07-29T03:57:21.242Z,23.89
2022-07-29T04:00:26.864Z,23.92
2022-07-29T04:03:30.609Z,23.97
2022-07-29T04:06:41.296Z,24.00
2022-07-29T04:09:44.625Z,24.05
2022-07-29T04:12:47.082Z,24.06
2022-07-29T04:15:49.871Z,24.09
2022-07-29T04:18:52.653Z,24.20
2022-07-29T04:21:55.439Z,24.26
2022-07-29T04:25:03.237Z,24.35
2022-07-29T04:28:07.925Z,24.37
2022-07-29T04:31:11.575Z,24.34
2022-07-29T04:34:14.612Z,24.40
2022-07-29T04:37:17.218Z,24.43
2022-07-29T04:40:20.763Z,24.43
2022-07-29T04:43:23.371Z,24.43
2022-07-29T04:46:26.253Z,24.38
2022-07-29T04:49:28.881Z,24.46
2022-07-29T04:52:31.727Z,24.50
2022-07-29T04:55:34.288Z,24.43
2022-07-29T04:58:37.757Z,24.47
2022-07-29T05:01:40.306Z,24.50
2022-07-29T05:04:46.037Z,24.59
2022-07-29T05:07:48.360Z,24.68
2022-07-29T05:10:51.062Z,24.83
2022-07-29T05:13:53.543Z,24.95
2022-07-29T05:16:58.069Z,25.02
2022-07-29T05:20:00.819Z,25.05
2022-07-29T05:23:04.019Z,25.12
2022-07-29T05:26:06.350Z,25.20
2022-07-29T05:29:42.587Z,25.32
2022-07-29T05:32:32.767Z,25.50
2022-07-29T05:35:35.982Z,25.59
2022-07-29T05:38:38.425Z,25.73
2022-07-29T05:41:41.270Z,25.72
2022-07-29T05:44:44.573Z,25.77
2022-07-29T05:47:47.569Z,25.78
2022-07-29T05:50:50.042Z,25.90
2022-07-29T05:53:52.665Z,25.99
2022-07-29T05:56:55.068Z,26.11
2022-07-29T05:59:57.741Z,26.34
2022-07-29T06:03:00.056Z,26.47
2022-07-29T06:06:02.698Z,26.50
2022-07-29T06:09:12.094Z,26.52
2022-07-29T06:12:15.888Z,26.49
2022-07-29T06:15:18.398Z,26.53
2022-07-29T06:18:24.601Z,26.60
2022-07-29T06:21:27.253Z,26.67
2022-07-29T06:24:30.252Z,26.71
2022-07-29T06:27:32.566Z,26.82
2022-07-29T06:30:35.202Z,27.00
2022-07-29T06:33:37.695Z,27.09
2022-07-29T06:36:41.019Z,27.22
2022-07-29T06:39:43.641Z,27.38
2022-07-29T06:42:46.322Z,27.39
2022-07-29T06:45:48.963Z,27.51
2022-07-29T06:48:53.097Z,27.60
2022-07-29T06:51:56.093Z,27.73
2022-07-29T06:54:59.100Z,27.94
2022-07-29T06:58:01.539Z,28.12
2022-07-29T07:01:06.112Z,28.27
2022-07-29T07:04:09.829Z,28.44
2022-07-29T07:07:12.504Z,28.67
2022-07-29T07:10:15.815Z,28.92
2022-07-29T07:13:18.603Z,28.96
2022-07-29T07:16:20.966Z,29.23
2022-07-29T07:19:24.029Z,29.55
2022-07-29T07:22:26.506Z,29.84
2022-07-29T07:25:29.277Z,29.97
2022-07-29T07:28:31.788Z,30.00
2022-07-29T07:31:34.672Z,29.78
2022-07-29T07:34:38.750Z,29.75
2022-07-29T07:37:41.902Z,29.83
2022-07-29T07:40:44.286Z,29.88
2022-07-29T07:43:46.799Z,29.87
2022-07-29T07:46:49.035Z,29.85
2022-07-29T07:49:51.722Z,30.04
2022-07-29T07:52:58.433Z,30.34
2022-07-29T07:56:10.494Z,30.53
2022-07-29T07:59:14.099Z,30.67
2022-07-29T08:02:16.983Z,30.74
2022-07-29T08:05:19.801Z,30.71
2022-07-29T08:08:22.339Z,30.73
2022-07-29T08:11:25.006Z,30.76
2022-07-29T08:14:27.338Z,30.81
2022-07-29T08:17:30.055Z,30.83
2022-07-29T08:20:39.744Z,31.02
2022-07-29T08:23:57.733Z,31.13
2022-07-29T08:27:01.218Z,31.31
2022-07-29T08:30:04.522Z,31.31
2022-07-29T08:33:06.910Z,31.39
2022-07-29T08:36:10.711Z,31.52
2022-07-29T08:39:13.103Z,31.64
2022-07-29T08:42:17.610Z,31.89
2022-07-29T08:45:21.293Z,32.04
2022-07-29T08:48:24.834Z,32.22
2022-07-29T08:51:28.439Z,32.24
2022-07-29T08:54:31.742Z,32.27
2022-07-29T08:57:35.442Z,32.34
2022-07-29T09:00:44.628Z,32.35
2022-07-29T09:03:47.677Z,32.70
2022-07-29T09:06:53.066Z,32.95
2022-07-29T09:09:55.951Z,33.29
2022-07-29T09:12:58.984Z,33.37
2022-07-29T09:16:05.657Z,33.12
2022-07-29T09:19:21.443Z,33.36
2022-07-29T09:22:31.317Z,33.96
2022-07-29T09:25:37.878Z,34.03
2022-07-29T09:28:43.222Z,34.04
2022-07-29T09:31:50.178Z,34.33
2022-07-29T09:35:22.542Z,34.30
2022-07-29T09:38:25.166Z,34.19
2022-07-29T09:41:31.055Z,34.03
2022-07-29T09:44:43.878Z,34.01
2022-07-29T09:47:50.039Z,34.02
2022-07-29T09:50:53.474Z,34.00
2022-07-29T09:53:55.896Z,34.06
2022-07-29T09:56:58.571Z,34.23
2022-07-29T10:00:06.306Z,34.24
2022-07-29T10:03:16.637Z,34.56
2022-07-29T10:06:19.496Z,34.71
2022-07-29T10:09:22.268Z,34.55
2022-07-29T10:12:25.522Z,34.45
2022-07-29T10:15:30.619Z,34.65
2022-07-29T10:18:34.592Z,34.81
2022-07-29T10:21:38.759Z,34.79
2022-07-29T10:24:41.443Z,34.81
2022-07-29T10:27:48.394Z,34.96
2022-07-29T10:30:53.350Z,35.03
2022-07-29T10:34:18.115Z,34.91
2022-07-29T10:38:06.966Z,34.54
2022-07-29T10:41:32.126Z,34.84
2022-07-29T10:44:43.838Z,35.27
2022-07-29T10:47:46.413Z,35.66
2022-07-29T10:51:05.412Z,35.81
2022-07-29T10:54:09.619Z,35.53
2022-07-29T10:57:53.972Z,35.49
2022-07-29T11:00:54.298Z,35.60
2022-07-29T11:03:57.501Z,35.89
2022-07-29T11:06:59.795Z,36.00
2022-07-29T11:10:12.661Z,35.83
2022-07-29T11:13:56.069Z,35.94
2022-07-29T11:17:05.938Z,36.34
2022-07-29T11:20:37.797Z,36.63
2022-07-29T11:23:43.279Z,36.59
2022-07-29T11:27:14.743Z,35.99
2022-07-29T11:30:21.710Z,35.96
2022-07-29T11:33:54.253Z,36.15
2022-07-29T11:37:10.284Z,36.09
2022-07-29T11:40:14.509Z,36.13
2022-07-29T11:44:13.533Z,36.29
2022-07-29T11:47:22.359Z,36.27
2022-07-29T11:50:35.382Z,36.55
2022-07-29T11:53:40.329Z,36.63
2022-07-29T11:56:46.696Z,36.66
2022-07-29T11:59:49.602Z,36.56
2022-07-29T12:02:53.714Z,36.66
2022-07-29T12:05:56.524Z,36.73
2022-07-29T12:08:59.947Z,36.84
2022-07-29T12:12:05.425Z,36.46
2022-07-29T12:15:20.920Z,36.04
2022-07-29T12:18:25.321Z,35.61
2022-07-29T12:21:28.722Z,35.45
2022-07-29T12:24:44.890Z,35.46
2022-07-29T12:27:48.378Z,35.90
2022-07-29T12:30:52.084Z,35.83
2022-07-29T12:33:55.093Z,35.78
2022-07-29T12:36:59.670Z,35.68
2022-07-29T12:40:06.270Z,35.59
2022-07-29T12:43:18.017Z,35.65
2022-07-29T12:46:20.523Z,35.94
2022-07-29T12:49:24.023Z,36.18
2022-07-29T12:52:34.927Z,36.28
2022-07-29T12:55:49.661Z,36.07
2022-07-29T12:58:52.665Z,35.71
2022-07-29T13:01:55.743Z,35.92
2022-07-29T13:05:00.047Z,36.07
2022-07-29T13:08:22.201Z,36.00
2022-07-29T13:11:44.058Z,36.06
2022-07-29T13:14:51.391Z,36.24
2022-07-29T13:17:53.790Z,36.22
2022-07-29T13:20:57.533Z,36.25
2022-07-29T13:23:59.903Z,36.11
2022-07-29T13:27:05.687Z,36.26
2022-07-29T13:30:10.850Z,36.44
2022-07-29T13:33:15.059Z,36.65
2022-07-29T13:36:17.695Z,36.69
